Historie AUP a zpráv METAR Praha-Ruzyně z 12:00 UTC

Datum: 02-06-2020 / Vyber datum:
LKPR 021200Z 04010KT CAVOK 20/06 Q1017 NOSIG
Prostor Spodní hranice Horní hranice Od Do
TRA12 GND 5000FT/AMSL 07:00 13:00
TRA13 GND 5000FT/AMSL 16:00 21:30
TRA56 1000FT/AGL F125 07:00 14:00
TRA57 3000FT/AMSL F125 07:00 14:00
TRA6 GND F095 11:00 14:00
TRA61 GND 3000FT/AMSL 15:00 21:00
TRA62 3000FT/AMSL F245 15:00 21:00
TRA71 GND 1000FT/AGL 07:00 14:00
TRA72 GND 3000FT/AMSL 07:00 14:00
TRA73 GND 1000FT/AGL 07:00 14:00
TRA76 1000FT/AGL F075 07:00 13:00
TRA77 1000FT/AGL F245 14:00 21:00
TRA78 1000FT/AGL F245 07:00 13:00
TRA79 F095 F245 07:00 13:00
TSA1 GND F065 13:00 15:00
TSA2B GND F135 07:00 22:10
TSA20 300FT/AGL 1000FT/AGL 07:00 13:00
TSA24 300FT/AGL 1000FT/AGL 14:00 19:02
TSA26 300FT/AGL 1000FT/AGL 14:00 19:02
TSA27 300FT/AGL 1000FT/AGL 14:00 19:02
TSA3 GND F195 07:00 16:30
TSA3A GND F285 07:00 20:30